This is the latest recevied weather packets stored in our database for station/object VE7OTD. If no packets are shown the sender has not sent any weather packets the latest 10 day(s).
| Time | Temp. | Humidity | Pressure | Rain* | Wind** | Luminosity | Snow |
|---|---|---|---|---|---|---|---|
| 1777531088 | 10.56° C | 70% | 1021.3 hPa | 0 mm | - | - | - |
| 1777529288 | 10° C | 74% | 1021.2 hPa | 0 mm | - | - | - |
| 1777527458 | 10.56° C | 71% | 1021.3 hPa | 0 mm | - | - | - |
| 1777525643 | 10.56° C | 67% | 1021.5 hPa | 0 mm | - | - | - |
| 1777523827 | 11.11° C | 64% | 1021.5 hPa | 0 mm | - | - | - |
| 1777521995 | 12.22° C | 62% | 1021.4 hPa | 0 mm | - | - | - |
| 1777520179 | 13.33° C | 56% | 1021.3 hPa | 0 mm | - | - | - |
| 1777518364 | 15° C | 50% | 1021.4 hPa | 0 mm | - | - | - |
| 1777516549 | 16.67° C | 44% | 1021.7 hPa | 0 mm | - | - | - |
| 1777514734 | 17.78° C | 40% | 1021.9 hPa | 0 mm | - | - | - |
| 1777512924 | 18.33° C | 42% | 1022.1 hPa | 0 mm | - | - | - |
| 1777511123 | 19.44° C | 40% | 1022.3 hPa | 0 mm | - | - | - |
| 1777509308 | 18.33° C | 40% | 1022.5 hPa | 0 mm | - | - | - |
| 1777507493 | 18.89° C | 40% | 1022.6 hPa | 0 mm | - | - | - |
| 1777502047 | 19.44° C | 42% | 1023.8 hPa | 0 mm | - | - | - |
| 1777500233 | 19.44° C | 41% | 1024.1 hPa | 0 mm | - | - | - |
| 1777496602 | 18.33° C | 50% | 1024.4 hPa | 0 mm | - | - | - |
| 1777494788 | 18.89° C | 52% | 1024.8 hPa | 0 mm | - | - | - |
| 1777491158 | 17.78° C | 56% | 1025.2 hPa | 0 mm | - | - | - |
| 1777487528 | 16.67° C | 59% | 1025.6 hPa | 0 mm | - | - | - |
| 1777485713 | 15.56° C | 61% | 1025.7 hPa | 0 mm | - | - | - |
| 1777483899 | 15° C | 62% | 1025.7 hPa | 0 mm | - | - | - |
| 1777482083 | 14.44° C | 61% | 1025.6 hPa | 0 mm | - | - | - |
| 1777471193 | 5.56° C | 94% | 1025.8 hPa | 0 mm | - | - | - |
| 1777469377 | 3.89° C | 98% | 1025.7 hPa | 0 mm | - | - | - |
* Rain latest hour (hover to see other rain measurements)
** Current wind speed in m/s (hover to see current wind gust speed)